sensor_id;sensor_type;location;lat;lon;timestamp;pressure;altitude;pressure_sealevel;temperature;humidity
16777;BME280;8505;49.456;8.164;2023-03-03T00:01:09;100078.75;;;0.59;74.10
16777;BME280;8505;49.456;8.164;2023-03-03T00:03:36;100069.63;;;0.39;75.17
16777;BME280;8505;49.456;8.164;2023-03-03T00:06:08;100071.91;;;0.44;75.27
16777;BME280;8505;49.456;8.164;2023-03-03T00:08:36;100069.06;;;0.34;74.64
16777;BME280;8505;49.456;8.164;2023-03-03T00:11:06;100068.91;;;0.37;74.61
16777;BME280;8505;49.456;8.164;2023-03-03T00:13:42;100071.88;;;0.31;74.94
16777;BME280;8505;49.456;8.164;2023-03-03T00:16:19;100072.63;;;0.33;75.05
16777;BME280;8505;49.456;8.164;2023-03-03T00:18:48;100083.25;;;0.30;74.82
16777;BME280;8505;49.456;8.164;2023-03-03T00:21:39;100079.13;;;0.26;75.39
16777;BME280;8505;49.456;8.164;2023-03-03T00:24:16;100082.56;;;-0.01;76.15
16777;BME280;8505;49.456;8.164;2023-03-03T00:26:46;100076.06;;;0.33;74.56
16777;BME280;8505;49.456;8.164;2023-03-03T00:29:29;100080.31;;;0.08;75.71
16777;BME280;8505;49.456;8.164;2023-03-03T00:32:09;100080.47;;;0.19;75.59
16777;BME280;8505;49.456;8.164;2023-03-03T00:34:43;100088.31;;;0.05;75.70
16777;BME280;8505;49.456;8.164;2023-03-03T00:37:22;100093.31;;;0.08;75.31
16777;BME280;8505;49.456;8.164;2023-03-03T00:39:52;100090.78;;;0.20;74.92
16777;BME280;8505;49.456;8.164;2023-03-03T00:42:21;100103.66;;;0.09;74.98
16777;BME280;8505;49.456;8.164;2023-03-03T00:44:55;100092.00;;;0.15;74.47
16777;BME280;8505;49.456;8.164;2023-03-03T00:47:26;100097.91;;;0.31;73.83
16777;BME280;8505;49.456;8.164;2023-03-03T00:50:17;100100.75;;;0.14;74.40
16777;BME280;8505;49.456;8.164;2023-03-03T00:52:58;100102.06;;;0.07;75.20
16777;BME280;8505;49.456;8.164;2023-03-03T00:55:27;100100.69;;;0.01;75.58
16777;BME280;8505;49.456;8.164;2023-03-03T00:57:56;100102.44;;;0.00;75.34
16777;BME280;8505;49.456;8.164;2023-03-03T01:00:24;100108.63;;;-0.29;76.47
16777;BME280;8505;49.456;8.164;2023-03-03T01:02:52;100109.06;;;-0.08;75.69
16777;BME280;8505;49.456;8.164;2023-03-03T01:05:20;100102.38;;;-0.12;75.71
16777;BME280;8505;49.456;8.164;2023-03-03T01:07:48;100104.72;;;-0.22;76.56
16777;BME280;8505;49.456;8.164;2023-03-03T01:10:16;100098.56;;;-0.07;75.80
16777;BME280;8505;49.456;8.164;2023-03-03T01:12:43;100102.50;;;-0.28;76.36
16777;BME280;8505;49.456;8.164;2023-03-03T01:15:13;100103.78;;;-0.07;75.65
16777;BME280;8505;49.456;8.164;2023-03-03T01:17:41;100097.81;;;-0.09;75.34
16777;BME280;8505;49.456;8.164;2023-03-03T01:20:11;100097.66;;;-0.20;75.75
16777;BME280;8505;49.456;8.164;2023-03-03T01:22:40;100105.72;;;-0.24;75.67
16777;BME280;8505;49.456;8.164;2023-03-03T01:25:08;100094.69;;;-0.14;75.54
16777;BME280;8505;49.456;8.164;2023-03-03T01:27:36;100104.53;;;-0.33;75.96
16777;BME280;8505;49.456;8.164;2023-03-03T01:30:05;100105.19;;;-0.29;76.31
16777;BME280;8505;49.456;8.164;2023-03-03T01:32:34;100111.31;;;-0.30;75.52
16777;BME280;8505;49.456;8.164;2023-03-03T01:35:02;100107.59;;;-0.41;76.25
16777;BME280;8505;49.456;8.164;2023-03-03T01:37:30;100100.63;;;-0.26;75.13
16777;BME280;8505;49.456;8.164;2023-03-03T01:40:00;100100.34;;;-0.07;74.61
16777;BME280;8505;49.456;8.164;2023-03-03T01:42:27;100098.00;;;-0.12;74.67
16777;BME280;8505;49.456;8.164;2023-03-03T01:45:14;100112.06;;;-0.14;74.54
16777;BME280;8505;49.456;8.164;2023-03-03T01:47:47;100103.31;;;-0.27;75.24
16777;BME280;8505;49.456;8.164;2023-03-03T01:53:13;100105.28;;;-0.31;75.27
16777;BME280;8505;49.456;8.164;2023-03-03T01:55:43;100100.63;;;-0.26;74.64
16777;BME280;8505;49.456;8.164;2023-03-03T01:58:15;100099.78;;;-0.41;75.33
16777;BME280;8505;49.456;8.164;2023-03-03T02:00:48;100091.44;;;-0.46;75.75
16777;BME280;8505;49.456;8.164;2023-03-03T02:03:18;100096.66;;;-0.46;76.33
16777;BME280;8505;49.456;8.164;2023-03-03T02:05:48;100093.84;;;-0.28;75.49
16777;BME280;8505;49.456;8.164;2023-03-03T02:08:18;100090.03;;;-0.37;76.01
16777;BME280;8505;49.456;8.164;2023-03-03T02:10:49;100092.66;;;-0.51;76.07
16777;BME280;8505;49.456;8.164;2023-03-03T02:13:17;100084.47;;;-0.45;76.18
16777;BME280;8505;49.456;8.164;2023-03-03T02:15:45;100084.19;;;-0.26;75.55
16777;BME280;8505;49.456;8.164;2023-03-03T02:18:14;100086.72;;;-0.25;75.43
16777;BME280;8505;49.456;8.164;2023-03-03T02:20:53;100081.03;;;-0.31;75.18
16777;BME280;8505;49.456;8.164;2023-03-03T02:23:26;100095.81;;;-0.46;75.55
16777;BME280;8505;49.456;8.164;2023-03-03T02:26:07;100094.97;;;-0.47;76.02
16777;BME280;8505;49.456;8.164;2023-03-03T02:28:37;100094.69;;;-0.56;76.44
16777;BME280;8505;49.456;8.164;2023-03-03T02:31:06;100097.47;;;-0.45;75.38
16777;BME280;8505;49.456;8.164;2023-03-03T02:33:36;100097.28;;;-0.70;76.67
16777;BME280;8505;49.456;8.164;2023-03-03T02:36:04;100088.91;;;-0.90;77.75
16777;BME280;8505;49.456;8.164;2023-03-03T02:38:36;100087.63;;;-0.83;77.75
16777;BME280;8505;49.456;8.164;2023-03-03T02:41:14;100095.31;;;-0.81;78.05
16777;BME280;8505;49.456;8.164;2023-03-03T02:43:47;100092.81;;;-0.83;77.88
16777;BME280;8505;49.456;8.164;2023-03-03T02:46:17;100091.41;;;-0.74;77.70
16777;BME280;8505;49.456;8.164;2023-03-03T02:48:45;100096.78;;;-0.91;78.24
16777;BME280;8505;49.456;8.164;2023-03-03T02:51:13;100094.53;;;-0.97;78.41
16777;BME280;8505;49.456;8.164;2023-03-03T02:53:41;100095.34;;;-1.11;78.95
16777;BME280;8505;49.456;8.164;2023-03-03T02:56:10;100089.78;;;-1.05;78.59
16777;BME280;8505;49.456;8.164;2023-03-03T02:58:37;100092.69;;;-0.95;78.62
16777;BME280;8505;49.456;8.164;2023-03-03T03:01:05;100089.81;;;-0.91;77.88
16777;BME280;8505;49.456;8.164;2023-03-03T03:03:33;100086.38;;;-0.91;77.62
16777;BME280;8505;49.456;8.164;2023-03-03T03:06:01;100095.56;;;-0.86;77.59
16777;BME280;8505;49.456;8.164;2023-03-03T03:08:29;100093.09;;;-0.87;77.49
16777;BME280;8505;49.456;8.164;2023-03-03T03:10:56;100089.75;;;-0.89;77.50
16777;BME280;8505;49.456;8.164;2023-03-03T03:13:26;100087.78;;;-0.86;77.34
16777;BME280;8505;49.456;8.164;2023-03-03T03:15:53;100095.00;;;-0.91;77.32
16777;BME280;8505;49.456;8.164;2023-03-03T03:18:21;100094.84;;;-0.88;77.33
16777;BME280;8505;49.456;8.164;2023-03-03T03:20:49;100098.41;;;-0.74;77.71
16777;BME280;8505;49.456;8.164;2023-03-03T03:23:17;100091.69;;;-0.93;77.66
16777;BME280;8505;49.456;8.164;2023-03-03T03:25:47;100098.38;;;-0.89;77.65
16777;BME280;8505;49.456;8.164;2023-03-03T03:28:16;100098.91;;;-0.98;78.05
16777;BME280;8505;49.456;8.164;2023-03-03T03:30:45;100092.56;;;-1.08;78.32
16777;BME280;8505;49.456;8.164;2023-03-03T03:33:13;100082.13;;;-1.22;78.97
16777;BME280;8505;49.456;8.164;2023-03-03T03:35:40;100093.63;;;-1.26;79.49
16777;BME280;8505;49.456;8.164;2023-03-03T03:38:11;100097.34;;;-1.30;79.48
16777;BME280;8505;49.456;8.164;2023-03-03T03:40:39;100102.91;;;-1.22;79.36
16777;BME280;8505;49.456;8.164;2023-03-03T03:43:07;100098.47;;;-1.20;78.99
16777;BME280;8505;49.456;8.164;2023-03-03T03:45:35;100103.09;;;-1.25;79.66
16777;BME280;8505;49.456;8.164;2023-03-03T03:48:04;100098.28;;;-1.17;79.42
16777;BME280;8505;49.456;8.164;2023-03-03T03:50:32;100112.94;;;-1.30;79.54
16777;BME280;8505;49.456;8.164;2023-03-03T03:53:00;100094.56;;;-1.27;79.45
16777;BME280;8505;49.456;8.164;2023-03-03T03:55:28;100097.69;;;-1.36;79.69
16777;BME280;8505;49.456;8.164;2023-03-03T03:57:56;100093.06;;;-1.31;79.96
16777;BME280;8505;49.456;8.164;2023-03-03T04:00:24;100106.06;;;-1.31;79.78
16777;BME280;8505;49.456;8.164;2023-03-03T04:02:51;100106.56;;;-1.40;80.24
16777;BME280;8505;49.456;8.164;2023-03-03T04:05:21;100106.97;;;-1.32;80.02
16777;BME280;8505;49.456;8.164;2023-03-03T04:07:49;100104.38;;;-1.32;79.42
16777;BME280;8505;49.456;8.164;2023-03-03T04:10:17;100114.16;;;-1.22;79.43
16777;BME280;8505;49.456;8.164;2023-03-03T04:12:44;100115.25;;;-1.26;79.43
16777;BME280;8505;49.456;8.164;2023-03-03T04:15:13;100113.59;;;-1.27;79.35
16777;BME280;8505;49.456;8.164;2023-03-03T04:17:41;100117.28;;;-1.31;79.92
16777;BME280;8505;49.456;8.164;2023-03-03T04:20:12;100107.53;;;-1.27;79.53
16777;BME280;8505;49.456;8.164;2023-03-03T04:22:42;100102.19;;;-1.24;79.66
16777;BME280;8505;49.456;8.164;2023-03-03T04:25:11;100102.53;;;-1.30;80.48
16777;BME280;8505;49.456;8.164;2023-03-03T04:27:41;100101.59;;;-1.29;79.82
16777;BME280;8505;49.456;8.164;2023-03-03T04:30:11;100105.31;;;-1.33;80.23
16777;BME280;8505;49.456;8.164;2023-03-03T04:32:39;100105.38;;;-1.35;80.71
16777;BME280;8505;49.456;8.164;2023-03-03T04:35:08;100104.38;;;-1.32;80.04
16777;BME280;8505;49.456;8.164;2023-03-03T04:37:36;100115.19;;;-1.24;80.12
16777;BME280;8505;49.456;8.164;2023-03-03T04:40:07;100118.28;;;-1.33;80.27
16777;BME280;8505;49.456;8.164;2023-03-03T04:42:35;100114.09;;;-1.36;79.90
16777;BME280;8505;49.456;8.164;2023-03-03T04:45:04;100106.97;;;-1.32;80.25
16777;BME280;8505;49.456;8.164;2023-03-03T04:47:32;100113.28;;;-1.36;80.74
16777;BME280;8505;49.456;8.164;2023-03-03T04:50:00;100118.56;;;-1.38;80.49
16777;BME280;8505;49.456;8.164;2023-03-03T04:52:28;100111.75;;;-1.40;80.80
16777;BME280;8505;49.456;8.164;2023-03-03T04:54:55;100118.00;;;-1.29;80.72
16777;BME280;8505;49.456;8.164;2023-03-03T04:57:24;100121.03;;;-1.20;80.20
16777;BME280;8505;49.456;8.164;2023-03-03T04:59:52;100122.81;;;-1.37;80.55
16777;BME280;8505;49.456;8.164;2023-03-03T05:02:20;100117.78;;;-1.40;81.30
16777;BME280;8505;49.456;8.164;2023-03-03T05:04:48;100124.94;;;-1.43;81.25
16777;BME280;8505;49.456;8.164;2023-03-03T05:07:16;100127.19;;;-1.37;81.37
16777;BME280;8505;49.456;8.164;2023-03-03T05:09:45;100131.28;;;-1.33;80.90
16777;BME280;8505;49.456;8.164;2023-03-03T05:12:13;100130.34;;;-1.48;81.30
16777;BME280;8505;49.456;8.164;2023-03-03T05:14:42;100127.75;;;-1.32;81.34
16777;BME280;8505;49.456;8.164;2023-03-03T05:17:10;100129.09;;;-1.11;81.31
16777;BME280;8505;49.456;8.164;2023-03-03T05:19:39;100135.03;;;-0.93;81.21
16777;BME280;8505;49.456;8.164;2023-03-03T05:22:06;100138.56;;;-1.24;80.80
16777;BME280;8505;49.456;8.164;2023-03-03T05:24:38;100142.72;;;-1.22;81.16
16777;BME280;8505;49.456;8.164;2023-03-03T05:27:08;100137.47;;;-1.36;81.28
16777;BME280;8505;49.456;8.164;2023-03-03T05:29:37;100147.63;;;-1.31;81.50
16777;BME280;8505;49.456;8.164;2023-03-03T05:32:06;100147.63;;;-1.31;82.29
16777;BME280;8505;49.456;8.164;2023-03-03T05:34:34;100144.81;;;-1.12;81.83
16777;BME280;8505;49.456;8.164;2023-03-03T05:37:02;100148.47;;;-1.01;82.06
16777;BME280;8505;49.456;8.164;2023-03-03T05:39:32;100154.22;;;-0.96;81.21
16777;BME280;8505;49.456;8.164;2023-03-03T05:42:00;100149.47;;;-0.59;81.87
16777;BME280;8505;49.456;8.164;2023-03-03T05:44:30;100155.44;;;-0.29;81.79
16777;BME280;8505;49.456;8.164;2023-03-03T05:46:58;100157.31;;;-0.31;80.48
16777;BME280;8505;49.456;8.164;2023-03-03T05:49:27;100163.09;;;-0.26;80.43
16777;BME280;8505;49.456;8.164;2023-03-03T05:51:55;100167.91;;;-0.20;79.98
16777;BME280;8505;49.456;8.164;2023-03-03T05:54:22;100172.47;;;-0.37;80.56
16777;BME280;8505;49.456;8.164;2023-03-03T05:56:50;100177.75;;;-0.39;81.94
16777;BME280;8505;49.456;8.164;2023-03-03T05:59:18;100184.44;;;-0.21;80.96
16777;BME280;8505;49.456;8.164;2023-03-03T06:01:46;100181.09;;;-0.23;80.37
16777;BME280;8505;49.456;8.164;2023-03-03T06:04:14;100177.59;;;-0.08;80.35
16777;BME280;8505;49.456;8.164;2023-03-03T06:06:43;100173.94;;;0.09;81.72
16777;BME280;8505;49.456;8.164;2023-03-03T06:09:10;100174.38;;;0.30;81.61
16777;BME280;8505;49.456;8.164;2023-03-03T06:11:38;100170.88;;;-0.26;80.73
16777;BME280;8505;49.456;8.164;2023-03-03T06:14:06;100181.09;;;-0.23;80.76
16777;BME280;8505;49.456;8.164;2023-03-03T06:16:33;100178.13;;;-0.45;80.68
16777;BME280;8505;49.456;8.164;2023-03-03T06:19:01;100179.75;;;-0.58;81.04
16777;BME280;8505;49.456;8.164;2023-03-03T06:21:29;100176.59;;;-0.49;80.98
16777;BME280;8505;49.456;8.164;2023-03-03T06:23:58;100188.72;;;-0.34;81.25
16777;BME280;8505;49.456;8.164;2023-03-03T06:26:25;100180.50;;;-0.42;80.93
16777;BME280;8505;49.456;8.164;2023-03-03T06:28:53;100180.47;;;-0.70;80.71
16777;BME280;8505;49.456;8.164;2023-03-03T06:31:21;100169.94;;;-0.83;81.54
16777;BME280;8505;49.456;8.164;2023-03-03T06:33:48;100183.56;;;-0.94;81.83
16777;BME280;8505;49.456;8.164;2023-03-03T06:36:17;100181.50;;;-1.03;81.65
16777;BME280;8505;49.456;8.164;2023-03-03T06:38:46;100185.69;;;-1.00;82.05
16777;BME280;8505;49.456;8.164;2023-03-03T06:41:15;100190.91;;;-0.86;82.50
16777;BME280;8505;49.456;8.164;2023-03-03T06:43:43;100182.03;;;-0.82;82.26
16777;BME280;8505;49.456;8.164;2023-03-03T06:46:11;100190.00;;;-0.85;82.46
16777;BME280;8505;49.456;8.164;2023-03-03T06:48:39;100196.78;;;-0.83;83.20
16777;BME280;8505;49.456;8.164;2023-03-03T06:51:19;100200.59;;;-0.74;82.28
16777;BME280;8505;49.456;8.164;2023-03-03T06:53:49;100208.75;;;-0.80;82.92
16777;BME280;8505;49.456;8.164;2023-03-03T06:56:20;100209.69;;;-0.81;81.92
16777;BME280;8505;49.456;8.164;2023-03-03T06:58:48;100221.72;;;-0.94;82.23
16777;BME280;8505;49.456;8.164;2023-03-03T07:01:16;100229.94;;;-1.02;82.69
16777;BME280;8505;49.456;8.164;2023-03-03T07:03:44;100232.59;;;-0.88;82.03
16777;BME280;8505;49.456;8.164;2023-03-03T07:06:20;100233.03;;;-0.65;82.23
16777;BME280;8505;49.456;8.164;2023-03-03T07:08:49;100237.00;;;-0.74;81.65
16777;BME280;8505;49.456;8.164;2023-03-03T07:11:21;100235.28;;;-0.59;81.59
16777;BME280;8505;49.456;8.164;2023-03-03T07:13:51;100237.38;;;-0.36;81.55
16777;BME280;8505;49.456;8.164;2023-03-03T07:16:23;100236.84;;;-0.27;81.53
16777;BME280;8505;49.456;8.164;2023-03-03T07:18:53;100243.28;;;-0.04;80.75
16777;BME280;8505;49.456;8.164;2023-03-03T07:21:22;100246.19;;;0.06;80.78
16777;BME280;8505;49.456;8.164;2023-03-03T07:23:52;100239.41;;;0.17;80.16
16777;BME280;8505;49.456;8.164;2023-03-03T07:26:24;100239.75;;;0.39;79.71
16777;BME280;8505;49.456;8.164;2023-03-03T07:28:56;100248.56;;;0.65;79.60
16777;BME280;8505;49.456;8.164;2023-03-03T07:31:30;100246.44;;;0.99;78.96
16777;BME280;8505;49.456;8.164;2023-03-03T07:34:01;100244.00;;;1.23;77.46
16777;BME280;8505;49.456;8.164;2023-03-03T07:36:34;100255.19;;;0.98;78.15
16777;BME280;8505;49.456;8.164;2023-03-03T07:39:03;100251.66;;;1.11;80.02
16777;BME280;8505;49.456;8.164;2023-03-03T07:41:42;100251.56;;;1.40;78.24
16777;BME280;8505;49.456;8.164;2023-03-03T07:44:16;100259.50;;;1.51;77.17
16777;BME280;8505;49.456;8.164;2023-03-03T07:46:47;100257.25;;;1.59;78.13
16777;BME280;8505;49.456;8.164;2023-03-03T07:49:21;100259.75;;;1.86;78.07
16777;BME280;8505;49.456;8.164;2023-03-03T07:51:52;100255.81;;;1.93;78.35
16777;BME280;8505;49.456;8.164;2023-03-03T07:54:29;100265.50;;;2.16;77.63
16777;BME280;8505;49.456;8.164;2023-03-03T07:57:13;100264.38;;;2.20;77.90
16777;BME280;8505;49.456;8.164;2023-03-03T07:59:46;100267.63;;;2.11;77.98
16777;BME280;8505;49.456;8.164;2023-03-03T08:02:32;100260.19;;;2.18;78.30
16777;BME280;8505;49.456;8.164;2023-03-03T08:08:23;100264.75;;;3.25;73.86
16777;BME280;8505;49.456;8.164;2023-03-03T08:10:55;100253.16;;;3.75;71.70
16777;BME280;8505;49.456;8.164;2023-03-03T08:13:28;100255.00;;;4.19;70.78
16777;BME280;8505;49.456;8.164;2023-03-03T08:16:00;100263.94;;;4.17;69.40
16777;BME280;8505;49.456;8.164;2023-03-03T08:18:31;100265.13;;;4.35;69.07
16777;BME280;8505;49.456;8.164;2023-03-03T08:21:02;100265.50;;;4.30;69.05
16777;BME280;8505;49.456;8.164;2023-03-03T08:23:29;100267.28;;;4.41;68.83
16777;BME280;8505;49.456;8.164;2023-03-03T08:25:57;100272.28;;;4.44;68.75
16777;BME280;8505;49.456;8.164;2023-03-03T08:28:26;100279.19;;;4.34;68.72
16777;BME280;8505;49.456;8.164;2023-03-03T08:30:54;100282.53;;;4.47;68.94
16777;BME280;8505;49.456;8.164;2023-03-03T08:33:42;100285.75;;;4.51;68.14
16777;BME280;8505;49.456;8.164;2023-03-03T08:36:10;100288.84;;;4.44;68.77
16777;BME280;8505;49.456;8.164;2023-03-03T08:38:38;100293.22;;;4.22;69.12
16777;BME280;8505;49.456;8.164;2023-03-03T08:41:06;100291.81;;;5.39;65.23
16777;BME280;8505;49.456;8.164;2023-03-03T08:43:35;100289.16;;;5.70;63.88
16777;BME280;8505;49.456;8.164;2023-03-03T08:46:04;100299.00;;;5.37;65.57
16777;BME280;8505;49.456;8.164;2023-03-03T08:48:33;100289.22;;;5.59;64.44
16777;BME280;8505;49.456;8.164;2023-03-03T08:51:00;100302.69;;;4.69;67.27
16777;BME280;8505;49.456;8.164;2023-03-03T08:53:28;100303.50;;;4.36;67.11
16777;BME280;8505;49.456;8.164;2023-03-03T08:55:58;100293.84;;;4.70;67.87
16777;BME280;8505;49.456;8.164;2023-03-03T08:58:26;100292.25;;;5.01;66.98
16777;BME280;8505;49.456;8.164;2023-03-03T09:01:03;100298.47;;;5.11;65.86
16777;BME280;8505;49.456;8.164;2023-03-03T09:03:31;100296.97;;;5.29;65.75
16777;BME280;8505;49.456;8.164;2023-03-03T09:05:58;100287.50;;;5.38;65.52
16777;BME280;8505;49.456;8.164;2023-03-03T09:08:26;100299.72;;;5.27;66.34
16777;BME280;8505;49.456;8.164;2023-03-03T09:10:54;100297.44;;;5.87;64.51
16777;BME280;8505;49.456;8.164;2023-03-03T09:13:22;100301.41;;;5.92;63.29
16777;BME280;8505;49.456;8.164;2023-03-03T09:15:49;100304.59;;;5.32;65.38
16777;BME280;8505;49.456;8.164;2023-03-03T09:18:20;100310.28;;;5.05;65.68
16777;BME280;8505;49.456;8.164;2023-03-03T09:20:49;100315.78;;;5.77;63.25
16777;BME280;8505;49.456;8.164;2023-03-03T09:23:28;100318.31;;;5.99;63.65
16777;BME280;8505;49.456;8.164;2023-03-03T09:25:57;100313.44;;;5.20;65.55
16777;BME280;8505;49.456;8.164;2023-03-03T09:28:27;100319.03;;;5.26;65.12
16777;BME280;8505;49.456;8.164;2023-03-03T09:30:56;100312.31;;;5.77;64.56
16777;BME280;8505;49.456;8.164;2023-03-03T09:33:27;100312.22;;;6.71;61.10
16777;BME280;8505;49.456;8.164;2023-03-03T09:36:02;100304.19;;;6.72;61.51
16777;BME280;8505;49.456;8.164;2023-03-03T09:38:32;100310.00;;;6.66;61.17
16777;BME280;8505;49.456;8.164;2023-03-03T09:41:15;100310.22;;;6.94;60.43
16777;BME280;8505;49.456;8.164;2023-03-03T09:44:01;100306.00;;;7.31;59.16
16777;BME280;8505;49.456;8.164;2023-03-03T09:46:37;100307.38;;;7.16;59.23
16777;BME280;8505;49.456;8.164;2023-03-03T09:49:16;100311.97;;;7.33;59.58
16777;BME280;8505;49.456;8.164;2023-03-03T09:52:09;100318.78;;;6.04;63.85
16777;BME280;8505;49.456;8.164;2023-03-03T09:54:51;100313.34;;;7.27;60.52
16777;BME280;8505;49.456;8.164;2023-03-03T09:57:24;100312.69;;;7.73;58.96
16777;BME280;8505;49.456;8.164;2023-03-03T10:00:18;100318.16;;;7.03;59.63
16777;BME280;8505;49.456;8.164;2023-03-03T10:02:59;100320.44;;;7.56;58.42
16777;BME280;8505;49.456;8.164;2023-03-03T10:05:41;100322.88;;;7.19;58.83
16777;BME280;8505;49.456;8.164;2023-03-03T10:08:24;100318.16;;;8.28;56.72
16777;BME280;8505;49.456;8.164;2023-03-03T10:11:01;100331.88;;;7.16;60.58
16777;BME280;8505;49.456;8.164;2023-03-03T10:13:40;100330.19;;;6.96;59.88
16777;BME280;8505;49.456;8.164;2023-03-03T10:16:26;100327.59;;;7.15;59.18
16777;BME280;8505;49.456;8.164;2023-03-03T10:19:01;100333.50;;;7.77;58.88
16777;BME280;8505;49.456;8.164;2023-03-03T10:21:35;100322.66;;;8.65;55.75
16777;BME280;8505;49.456;8.164;2023-03-03T10:24:15;100326.03;;;8.94;53.93
16777;BME280;8505;49.456;8.164;2023-03-03T10:27:01;100326.13;;;7.99;55.85
16777;BME280;8505;49.456;8.164;2023-03-03T10:29:43;100319.97;;;8.47;56.46
16777;BME280;8505;49.456;8.164;2023-03-03T10:32:36;100322.28;;;9.42;53.03
16777;BME280;8505;49.456;8.164;2023-03-03T10:35:38;100328.34;;;9.07;54.39
16777;BME280;8505;49.456;8.164;2023-03-03T10:38:31;100330.72;;;8.73;53.97
16777;BME280;8505;49.456;8.164;2023-03-03T10:41:16;100335.31;;;7.76;57.02
16777;BME280;8505;49.456;8.164;2023-03-03T10:44:00;100340.28;;;8.18;55.96
16777;BME280;8505;49.456;8.164;2023-03-03T10:46:45;100337.47;;;8.48;55.59
16777;BME280;8505;49.456;8.164;2023-03-03T10:49:25;100322.91;;;8.34;55.61
16777;BME280;8505;49.456;8.164;2023-03-03T10:52:21;100315.72;;;9.46;52.35
16777;BME280;8505;49.456;8.164;2023-03-03T10:55:05;100306.56;;;9.75;52.96
16777;BME280;8505;49.456;8.164;2023-03-03T10:57:41;100310.63;;;9.34;52.11
16777;BME280;8505;49.456;8.164;2023-03-03T11:00:18;100309.03;;;10.30;49.82
16777;BME280;8505;49.456;8.164;2023-03-03T11:03:10;100308.13;;;10.04;50.36
16777;BME280;8505;49.456;8.164;2023-03-03T11:05:50;100304.88;;;10.10;49.84
16777;BME280;8505;49.456;8.164;2023-03-03T11:08:26;100308.31;;;9.85;50.78
16777;BME280;8505;49.456;8.164;2023-03-03T11:11:06;100314.84;;;9.27;52.56
16777;BME280;8505;49.456;8.164;2023-03-03T11:13:41;100308.16;;;9.51;50.47
16777;BME280;8505;49.456;8.164;2023-03-03T11:16:25;100307.97;;;10.83;48.68
16777;BME280;8505;49.456;8.164;2023-03-03T11:19:04;100303.09;;;9.57;50.94
16777;BME280;8505;49.456;8.164;2023-03-03T11:21:41;100309.81;;;10.05;50.34
16777;BME280;8505;49.456;8.164;2023-03-03T11:24:26;100308.53;;;10.61;49.17
16777;BME280;8505;49.456;8.164;2023-03-03T11:27:07;100313.56;;;10.72;48.67
16777;BME280;8505;49.456;8.164;2023-03-03T11:29:50;100305.47;;;10.22;49.92
16777;BME280;8505;49.456;8.164;2023-03-03T11:32:27;100319.13;;;9.91;50.40
16777;BME280;8505;49.456;8.164;2023-03-03T11:35:16;100309.06;;;10.38;50.51
16777;BME280;8505;49.456;8.164;2023-03-03T11:37:54;100308.13;;;10.47;49.64
16777;BME280;8505;49.456;8.164;2023-03-03T11:40:25;100300.06;;;10.57;48.75
16777;BME280;8505;49.456;8.164;2023-03-03T11:43:02;100293.28;;;9.85;50.79
16777;BME280;8505;49.456;8.164;2023-03-03T11:45:38;100294.13;;;10.29;50.03
16777;BME280;8505;49.456;8.164;2023-03-03T11:48:11;100291.00;;;9.90;50.21
16777;BME280;8505;49.456;8.164;2023-03-03T11:50:47;100288.44;;;10.84;49.00
16777;BME280;8505;49.456;8.164;2023-03-03T11:53:28;100296.63;;;10.65;46.95
16777;BME280;8505;49.456;8.164;2023-03-03T11:56:04;100295.72;;;10.22;48.28
16777;BME280;8505;49.456;8.164;2023-03-03T11:58:39;100293.50;;;10.61;47.55
16777;BME280;8505;49.456;8.164;2023-03-03T12:01:17;100287.84;;;10.12;48.74
16777;BME280;8505;49.456;8.164;2023-03-03T12:03:48;100289.03;;;9.92;49.24
16777;BME280;8505;49.456;8.164;2023-03-03T12:06:24;100283.75;;;10.70;47.08
16777;BME280;8505;49.456;8.164;2023-03-03T12:09:12;100286.97;;;10.04;49.30
16777;BME280;8505;49.456;8.164;2023-03-03T12:11:47;100293.22;;;10.46;47.80
16777;BME280;8505;49.456;8.164;2023-03-03T12:14:31;100293.94;;;10.57;47.88
16777;BME280;8505;49.456;8.164;2023-03-03T12:17:05;100296.78;;;10.29;47.81
16777;BME280;8505;49.456;8.164;2023-03-03T12:19:47;100293.25;;;10.03;48.07
16777;BME280;8505;49.456;8.164;2023-03-03T12:22:26;100292.28;;;10.55;47.27
16777;BME280;8505;49.456;8.164;2023-03-03T12:25:08;100283.38;;;10.13;48.92
16777;BME280;8505;49.456;8.164;2023-03-03T12:27:43;100281.50;;;10.49;48.33
16777;BME280;8505;49.456;8.164;2023-03-03T12:30:26;100274.41;;;10.91;47.85
16777;BME280;8505;49.456;8.164;2023-03-03T12:33:14;100277.50;;;10.19;49.23
16777;BME280;8505;49.456;8.164;2023-03-03T12:35:51;100269.75;;;10.51;48.68
16777;BME280;8505;49.456;8.164;2023-03-03T12:38:29;100258.22;;;10.61;47.64
16777;BME280;8505;49.456;8.164;2023-03-03T12:41:06;100258.63;;;11.40;45.69
16777;BME280;8505;49.456;8.164;2023-03-03T12:43:48;100248.16;;;11.39;45.37
16777;BME280;8505;49.456;8.164;2023-03-03T12:46:24;100248.81;;;11.24;45.56
16777;BME280;8505;49.456;8.164;2023-03-03T12:48:55;100248.72;;;11.66;44.59
16777;BME280;8505;49.456;8.164;2023-03-03T12:51:33;100246.63;;;11.12;44.91
16777;BME280;8505;49.456;8.164;2023-03-03T12:56:53;100245.88;;;11.52;43.53
16777;BME280;8505;49.456;8.164;2023-03-03T12:59:30;100249.50;;;11.51;43.49
16777;BME280;8505;49.456;8.164;2023-03-03T13:02:19;100234.91;;;11.22;44.62
16777;BME280;8505;49.456;8.164;2023-03-03T13:04:55;100245.00;;;11.11;45.54
16777;BME280;8505;49.456;8.164;2023-03-03T13:07:32;100231.78;;;11.51;45.99
16777;BME280;8505;49.456;8.164;2023-03-03T13:10:11;100241.00;;;11.15;44.41
16777;BME280;8505;49.456;8.164;2023-03-03T13:12:44;100230.94;;;11.51;43.69
16777;BME280;8505;49.456;8.164;2023-03-03T13:15:19;100244.06;;;10.78;46.04
16777;BME280;8505;49.456;8.164;2023-03-03T13:18:14;100237.56;;;10.38;46.81
16777;BME280;8505;49.456;8.164;2023-03-03T13:20:49;100234.66;;;10.91;46.09
16777;BME280;8505;49.456;8.164;2023-03-03T13:23:27;100235.47;;;10.84;44.97
16777;BME280;8505;49.456;8.164;2023-03-03T13:26:01;100237.19;;;11.09;45.03
16777;BME280;8505;49.456;8.164;2023-03-03T13:28:36;100226.66;;;11.74;43.95
16777;BME280;8505;49.456;8.164;2023-03-03T13:31:11;100229.28;;;11.50;45.17
16777;BME280;8505;49.456;8.164;2023-03-03T13:33:46;100225.81;;;11.73;42.72
16777;BME280;8505;49.456;8.164;2023-03-03T13:36:21;100225.94;;;11.31;43.24
16777;BME280;8505;49.456;8.164;2023-03-03T13:38:54;100229.06;;;12.24;41.31
16777;BME280;8505;49.456;8.164;2023-03-03T13:41:27;100228.91;;;12.34;41.35
16777;BME280;8505;49.456;8.164;2023-03-03T13:44:01;100224.41;;;12.34;41.09